createdAt,value
2018-11-11T00:00:10.402Z,81.12
2018-11-11T00:02:39.109Z,80.45
2018-11-11T00:05:09.302Z,80.75
2018-11-11T00:07:38.021Z,80.84
2018-11-11T00:10:21.644Z,80.75
2018-11-11T00:12:50.608Z,80.14
2018-11-11T00:15:19.904Z,81.20
2018-11-11T00:17:48.960Z,80.80
2018-11-11T00:20:17.761Z,81.46
2018-11-11T00:22:46.485Z,81.57
2018-11-11T00:25:15.185Z,81.36
2018-11-11T00:27:43.871Z,81.25
2018-11-11T00:30:18.059Z,81.52
2018-11-11T00:32:46.768Z,82.12
2018-11-11T00:35:15.514Z,82.29
2018-11-11T00:37:44.212Z,81.56
2018-11-11T00:40:14.132Z,81.72
2018-11-11T00:42:43.744Z,81.81
2018-11-11T00:45:13.273Z,81.18
2018-11-11T00:47:42.856Z,81.29
2018-11-11T00:50:12.237Z,80.92
2018-11-11T00:52:40.967Z,81.27
2018-11-11T00:55:13.045Z,81.08
2018-11-11T00:57:42.322Z,80.95
2018-11-11T01:00:12.960Z,81.21
2018-11-11T01:02:42.464Z,80.98
2018-11-11T01:05:11.993Z,81.27
2018-11-11T01:07:41.356Z,81.26
2018-11-11T01:10:12.747Z,80.94
2018-11-11T01:12:42.772Z,81.23
2018-11-11T01:15:12.884Z,80.96
2018-11-11T01:17:41.606Z,80.98
2018-11-11T01:20:13.225Z,81.10
2018-11-11T01:22:42.112Z,81.65
2018-11-11T01:25:12.744Z,81.54
2018-11-11T01:27:42.578Z,81.34
2018-11-11T01:30:11.289Z,81.28
2018-11-11T01:32:40.062Z,81.54
2018-11-11T01:35:11.272Z,81.40
2018-11-11T01:37:40.520Z,81.32
2018-11-11T01:40:09.728Z,80.95
2018-11-11T01:42:38.556Z,81.19
2018-11-11T01:45:10.801Z,81.54
2018-11-11T01:47:39.770Z,81.71
2018-11-11T01:50:09.360Z,81.00
2018-11-11T01:52:38.695Z,81.67
2018-11-11T01:55:07.603Z,80.62
2018-11-11T01:57:36.327Z,81.71
2018-11-11T02:00:06.565Z,80.65
2018-11-11T02:02:35.251Z,80.55
2018-11-11T02:05:05.256Z,79.91
2018-11-11T02:07:33.969Z,80.15
2018-11-11T02:10:04.041Z,80.55
2018-11-11T02:12:52.007Z,79.91
2018-11-11T02:15:21.372Z,79.79
2018-11-11T02:17:50.889Z,79.56
2018-11-11T02:20:20.599Z,79.19
2018-11-11T02:22:50.459Z,79.92
2018-11-11T02:25:19.134Z,78.95
2018-11-11T02:27:47.916Z,79.16
2018-11-11T02:30:18.939Z,79.16
2018-11-11T02:32:48.682Z,79.29
2018-11-11T02:35:17.393Z,79.11
2018-11-11T02:37:46.249Z,79.00
2018-11-11T02:40:18.983Z,79.18
2018-11-11T02:42:48.101Z,78.85
2018-11-11T02:45:17.771Z,78.76
2018-11-11T02:47:46.500Z,78.86
2018-11-11T02:50:17.296Z,79.19
2018-11-11T02:52:47.180Z,78.29
2018-11-11T02:55:16.501Z,78.30
2018-11-11T02:57:45.808Z,78.25
2018-11-11T03:00:17.392Z,78.73
2018-11-11T03:02:46.662Z,78.71
2018-11-11T03:05:17.087Z,78.75
2018-11-11T03:07:45.789Z,78.80
2018-11-11T03:10:16.313Z,78.43
2018-11-11T03:12:45.695Z,78.20
2018-11-11T03:15:14.996Z,78.77
2018-11-11T03:17:44.255Z,78.85
2018-11-11T03:20:13.602Z,79.12
2018-11-11T03:22:42.350Z,78.26
2018-11-11T03:25:17.992Z,78.20
2018-11-11T03:27:47.554Z,78.65
2018-11-11T03:30:17.277Z,78.46
2018-11-11T03:32:46.546Z,79.04
2018-11-11T03:35:15.531Z,79.01
2018-11-11T03:37:45.015Z,78.86
2018-11-11T03:40:15.474Z,78.25
2018-11-11T03:42:44.459Z,78.48
2018-11-11T03:45:14.911Z,78.76
2018-11-11T03:47:44.600Z,79.05
2018-11-11T03:50:13.317Z,78.78
2018-11-11T03:52:42.243Z,78.29
2018-11-11T03:55:11.269Z,78.69
2018-11-11T03:57:41.211Z,78.48
2018-11-11T04:00:11.414Z,78.81
2018-11-11T04:02:41.013Z,78.83
2018-11-11T04:05:11.037Z,79.14
2018-11-11T04:07:40.836Z,79.15
2018-11-11T04:10:12.450Z,78.59
2018-11-11T04:12:41.392Z,79.08
2018-11-11T04:15:11.931Z,78.67
2018-11-11T04:17:40.720Z,79.20
2018-11-11T04:20:11.349Z,78.79
2018-11-11T04:22:40.045Z,78.88
2018-11-11T04:25:08.835Z,78.75
2018-11-11T04:27:37.564Z,78.61
2018-11-11T04:30:06.960Z,78.79
2018-11-11T04:32:35.681Z,78.41
2018-11-11T04:35:06.447Z,77.30
2018-11-11T04:37:35.149Z,77.51
2018-11-11T04:40:06.651Z,77.32
2018-11-11T04:42:35.356Z,77.19
2018-11-11T04:45:04.064Z,77.07
2018-11-11T04:47:32.802Z,76.64
2018-11-11T04:50:01.916Z,76.82
2018-11-11T04:52:30.625Z,76.72
2018-11-11T04:54:59.339Z,76.84
2018-11-11T04:57:28.054Z,75.91
2018-11-11T04:59:56.749Z,75.65
2018-11-11T05:02:25.456Z,75.64
2018-11-11T05:04:54.899Z,75.27
2018-11-11T05:07:24.537Z,75.10
2018-11-11T05:09:53.251Z,75.02
2018-11-11T05:12:22.709Z,75.75
2018-11-11T05:14:51.419Z,75.27
2018-11-11T05:17:20.732Z,75.14
2018-11-11T05:19:49.449Z,75.40
2018-11-11T05:22:18.156Z,74.80
2018-11-11T05:24:46.903Z,75.48
2018-11-11T05:27:15.608Z,74.72
2018-11-11T05:29:44.309Z,75.30
2018-11-11T05:32:13.024Z,75.06
2018-11-11T05:34:41.740Z,74.58
2018-11-11T05:37:10.441Z,74.29
2018-11-11T05:39:39.148Z,74.15
2018-11-11T05:42:07.884Z,74.51
2018-11-11T05:44:36.596Z,73.96
2018-11-11T05:47:05.613Z,74.11
2018-11-11T05:49:35.084Z,73.85
2018-11-11T05:52:04.938Z,74.04
2018-11-11T05:54:34.743Z,73.73
2018-11-11T05:57:03.478Z,73.92
2018-11-11T05:59:32.273Z,73.93
2018-11-11T06:02:01.008Z,73.62
2018-11-11T06:04:29.788Z,73.63
2018-11-11T06:06:58.494Z,73.96
2018-11-11T06:09:27.226Z,73.66
2018-11-11T06:11:55.961Z,74.02
2018-11-11T06:14:24.673Z,73.53
2018-11-11T06:16:53.364Z,73.78
2018-11-11T06:19:22.086Z,74.14
2018-11-11T06:21:50.827Z,74.13
2018-11-11T06:24:19.539Z,74.54
2018-11-11T06:26:48.662Z,73.84
2018-11-11T06:29:18.523Z,74.13
2018-11-11T06:31:47.372Z,74.30
2018-11-11T06:34:16.612Z,73.89
2018-11-11T06:36:46.244Z,73.96
2018-11-11T06:39:14.999Z,74.36
2018-11-11T06:41:44.344Z,74.23
2018-11-11T06:44:13.048Z,74.16
2018-11-11T06:46:41.763Z,74.56
2018-11-11T06:49:10.480Z,74.74
2018-11-11T06:51:39.187Z,74.61
2018-11-11T06:54:07.919Z,74.74
2018-11-11T06:56:36.656Z,74.96
2018-11-11T06:59:06.077Z,74.66
2018-11-11T07:01:34.799Z,75.31
2018-11-11T07:04:06.518Z,74.79
2018-11-11T07:06:35.212Z,74.86
2018-11-11T07:09:05.840Z,74.93
2018-11-11T07:11:34.544Z,75.64
2018-11-11T07:14:03.313Z,76.04
2018-11-11T07:16:31.984Z,75.91
2018-11-11T07:19:01.529Z,76.67
2018-11-11T07:21:30.236Z,76.25
2018-11-11T07:23:58.951Z,75.92
2018-11-11T07:26:27.964Z,77.18
2018-11-11T07:28:56.691Z,76.81
2018-11-11T07:31:26.535Z,76.96
2018-11-11T07:33:55.266Z,76.58
2018-11-11T07:36:25.592Z,77.28
2018-11-11T07:38:54.312Z,77.27
2018-11-11T07:41:23.036Z,77.14
2018-11-11T07:43:51.772Z,77.73
2018-11-11T07:46:20.468Z,78.32
2018-11-11T07:48:49.179Z,78.80
2018-11-11T07:51:18.180Z,78.23
2018-11-11T07:53:46.865Z,78.69
2018-11-11T07:56:15.594Z,79.25
2018-11-11T07:58:44.324Z,79.94
2018-11-11T08:01:13.370Z,79.66
2018-11-11T08:03:42.072Z,80.10
2018-11-11T08:06:11.547Z,80.57
2018-11-11T08:08:40.400Z,80.53
2018-11-11T08:11:20.719Z,80.87
2018-11-11T08:13:50.475Z,81.03
2018-11-11T08:16:19.193Z,80.88
2018-11-11T08:18:47.911Z,81.23
2018-11-11T08:21:16.696Z,81.64
2018-11-11T08:23:45.387Z,82.03
2018-11-11T08:26:14.112Z,81.55
2018-11-11T08:28:42.805Z,81.33
2018-11-11T08:31:12.369Z,81.07
2018-11-11T08:33:41.076Z,81.43
2018-11-11T08:36:09.798Z,81.15
2018-11-11T08:38:39.214Z,81.31
2018-11-11T08:41:08.189Z,81.17
2018-11-11T08:43:36.905Z,80.72
2018-11-11T08:46:06.459Z,80.72
2018-11-11T08:48:35.233Z,80.97
2018-11-11T08:51:06.082Z,80.75
2018-11-11T08:53:34.807Z,81.25
2018-11-11T08:56:23.973Z,80.68
2018-11-11T08:58:52.672Z,80.61
2018-11-11T09:01:21.828Z,80.33
2018-11-11T09:03:50.879Z,80.36
2018-11-11T09:06:19.711Z,79.72
2018-11-11T09:08:49.281Z,79.75
2018-11-11T09:11:18.076Z,79.33
2018-11-11T09:13:47.416Z,78.97
2018-11-11T09:16:16.392Z,78.37
2018-11-11T09:18:45.963Z,77.73
2018-11-11T09:21:14.728Z,77.01
2018-11-11T09:23:43.492Z,77.74
2018-11-11T09:26:12.191Z,77.25
2018-11-11T09:28:40.948Z,77.47
2018-11-11T09:31:09.736Z,76.70
2018-11-11T09:33:38.646Z,76.22
2018-11-11T09:36:08.120Z,76.35
2018-11-11T09:38:36.805Z,76.30
2018-11-11T09:41:06.373Z,75.49
2018-11-11T09:43:35.080Z,75.40
2018-11-11T09:46:05.573Z,75.26
2018-11-11T09:48:34.312Z,75.29
2018-11-11T09:51:03.053Z,74.53
2018-11-11T09:56:12.013Z,74.02
2018-11-11T09:58:40.817Z,73.07
2018-11-11T10:01:09.744Z,73.35
2018-11-11T10:03:42.354Z,73.81
2018-11-11T10:06:19.304Z,72.75
2018-11-11T10:08:53.378Z,71.80
2018-11-11T10:11:27.841Z,70.78
2018-11-11T10:16:02.872Z,71.47
2018-11-11T10:18:36.868Z,71.42
2018-11-11T10:21:10.978Z,70.58
2018-11-11T10:23:43.588Z,70.85
2018-11-11T10:28:24.468Z,70.58
2018-11-11T10:30:58.979Z,71.30
2018-11-11T10:33:39.181Z,69.57
2018-11-11T10:36:13.671Z,70.03
2018-11-11T10:38:53.248Z,69.73
2018-11-11T10:41:26.049Z,69.28
2018-11-11T10:43:58.057Z,69.21
2018-11-11T10:46:31.760Z,69.04
2018-11-11T10:49:04.864Z,68.66
2018-11-11T10:51:33.579Z,68.86
2018-11-11T10:54:02.425Z,68.63
2018-11-11T11:05:10.279Z,68.66
2018-11-11T11:07:38.995Z,68.28
2018-11-11T11:10:08.611Z,68.73
2018-11-11T11:12:37.372Z,67.81
2018-11-11T11:15:07.614Z,67.83
2018-11-11T11:17:36.355Z,67.12
2018-11-11T11:20:05.365Z,67.76
2018-11-11T11:22:34.102Z,67.27
2018-11-11T11:25:02.832Z,67.08
2018-11-11T11:27:31.592Z,66.98
2018-11-11T11:30:00.678Z,66.75
2018-11-11T11:32:29.436Z,67.16
2018-11-11T11:34:58.632Z,66.44
2018-11-11T11:37:27.940Z,66.83
2018-11-11T11:39:56.655Z,66.91
2018-11-11T11:42:25.364Z,66.85
2018-11-11T11:44:54.092Z,66.85
2018-11-11T11:47:23.509Z,67.21
2018-11-11T11:49:52.256Z,66.96
2018-11-11T11:52:22.209Z,67.20
2018-11-11T11:54:50.888Z,66.22
2018-11-11T11:57:19.624Z,65.55
2018-11-11T11:59:48.363Z,66.44
2018-11-11T12:02:17.308Z,66.09
2018-11-11T12:04:45.988Z,66.73
2018-11-11T12:07:14.687Z,66.36
2018-11-11T12:09:43.430Z,65.61
2018-11-11T12:12:12.153Z,65.69
2018-11-11T12:14:40.896Z,65.37
2018-11-11T12:17:09.703Z,65.84
2018-11-11T12:19:38.365Z,65.50
2018-11-11T12:22:07.640Z,64.77
2018-11-11T12:24:36.609Z,64.83
2018-11-11T12:27:05.594Z,65.11
2018-11-11T12:29:46.858Z,64.45
2018-11-11T12:32:15.564Z,64.27
2018-11-11T12:34:44.420Z,64.15
2018-11-11T12:37:13.142Z,64.19
2018-11-11T12:39:41.900Z,65.31
2018-11-11T12:42:10.568Z,64.83
2018-11-11T12:44:39.683Z,64.96
2018-11-11T12:47:08.431Z,64.54
2018-11-11T12:49:37.132Z,65.13
2018-11-11T12:52:05.880Z,65.01
2018-11-11T12:54:34.604Z,65.49
2018-11-11T12:57:03.340Z,65.29
2018-11-11T12:59:32.062Z,64.91
2018-11-11T13:02:00.817Z,65.54
2018-11-11T13:04:29.588Z,65.22
2018-11-11T13:06:58.502Z,64.83
2018-11-11T13:09:27.649Z,64.77
2018-11-11T13:11:56.415Z,65.16
2018-11-11T13:14:25.283Z,64.56
2018-11-11T13:16:54.384Z,64.83
2018-11-11T13:19:23.725Z,64.99
2018-11-11T13:21:52.412Z,64.66
2018-11-11T13:24:21.133Z,64.93
2018-11-11T13:26:50.459Z,64.53
2018-11-11T13:29:19.184Z,64.79
2018-11-11T13:31:48.623Z,64.96
2018-11-11T13:34:17.340Z,64.94
2018-11-11T13:36:47.075Z,64.60
2018-11-11T13:39:15.796Z,64.64
2018-11-11T13:41:44.522Z,65.38
2018-11-11T13:44:13.276Z,65.22
2018-11-11T13:46:42.162Z,65.89
2018-11-11T13:49:10.999Z,66.51
2018-11-11T13:51:39.734Z,67.31
2018-11-11T13:54:08.508Z,67.02
2018-11-11T13:56:38.640Z,67.34
2018-11-11T13:59:08.766Z,68.47
2018-11-11T14:01:37.544Z,68.39
2018-11-11T14:04:06.709Z,68.84
2018-11-11T14:06:35.588Z,69.41
2018-11-11T14:09:09.252Z,69.95
2018-11-11T14:11:38.276Z,70.10
2018-11-11T14:14:07.230Z,70.45
2018-11-11T14:16:35.988Z,70.06
2018-11-11T14:19:05.373Z,69.67
2018-11-11T14:21:34.002Z,70.40
2018-11-11T14:24:03.044Z,70.40
2018-11-11T14:26:32.412Z,70.92
2018-11-11T14:29:01.265Z,71.12
2018-11-11T14:31:29.936Z,70.83
2018-11-11T14:33:58.657Z,71.26
2018-11-11T14:36:27.364Z,71.67
2018-11-11T14:38:56.776Z,71.22
2018-11-11T14:41:25.484Z,71.48
2018-11-11T14:43:54.201Z,71.26
2018-11-11T14:46:22.937Z,72.46
2018-11-11T14:48:52.257Z,72.24
2018-11-11T14:51:20.972Z,72.13
2018-11-11T14:53:50.185Z,72.27
2018-11-11T14:56:18.904Z,72.89
2018-11-11T14:58:48.410Z,72.85
2018-11-11T15:01:17.030Z,72.87
2018-11-11T15:03:45.865Z,72.99
2018-11-11T15:06:14.785Z,72.80
2018-11-11T15:08:43.536Z,73.24
2018-11-11T15:11:12.940Z,73.85
2018-11-11T15:13:42.344Z,73.86
2018-11-11T15:16:11.299Z,73.72
2018-11-11T15:18:40.005Z,73.96
2018-11-11T15:21:09.526Z,73.89
2018-11-11T15:23:38.174Z,74.06
2018-11-11T15:26:08.236Z,74.86
2018-11-11T15:28:36.956Z,75.59
2018-11-11T15:31:06.706Z,75.66
2018-11-11T15:33:35.260Z,75.37
2018-11-11T15:36:04.975Z,75.57
2018-11-11T15:38:33.696Z,76.14
2018-11-11T15:41:02.431Z,76.29
2018-11-11T15:43:32.540Z,76.53
2018-11-11T15:46:01.224Z,76.26
2018-11-11T15:48:29.934Z,76.45
2018-11-11T15:50:58.636Z,77.04
2018-11-11T15:53:33.983Z,77.91
2018-11-11T15:56:03.592Z,77.80
2018-11-11T15:58:32.315Z,78.69
2018-11-11T16:01:01.138Z,78.26
2018-11-11T16:03:29.856Z,78.68
2018-11-11T16:05:58.552Z,78.82
2018-11-11T16:08:27.260Z,79.62
2018-11-11T16:10:55.976Z,79.23
2018-11-11T16:13:24.697Z,79.23
2018-11-11T16:15:53.423Z,79.41
2018-11-11T16:18:22.154Z,79.20
2018-11-11T16:20:50.873Z,79.65
2018-11-11T16:23:19.651Z,79.44
2018-11-11T16:25:48.333Z,79.62
2018-11-11T16:28:17.044Z,79.70
2018-11-11T16:30:46.492Z,80.13
2018-11-11T16:33:15.437Z,80.12
2018-11-11T16:35:44.099Z,80.34
2018-11-11T16:38:13.444Z,79.63
2018-11-11T16:40:42.236Z,80.40
2018-11-11T16:43:10.881Z,79.93
2018-11-11T16:45:39.608Z,79.85
2018-11-11T16:48:08.996Z,79.99
2018-11-11T16:50:38.259Z,80.22
2018-11-11T16:53:08.300Z,80.05
2018-11-11T16:55:37.531Z,79.87
2018-11-11T16:58:06.528Z,80.41
2018-11-11T17:00:48.231Z,80.23
2018-11-11T17:03:16.956Z,80.77
2018-11-11T17:05:46.417Z,80.70
2018-11-11T17:08:15.144Z,80.75
2018-11-11T17:10:43.883Z,80.51
2018-11-11T17:13:13.664Z,80.20
2018-11-11T17:15:42.421Z,80.52
2018-11-11T17:18:11.134Z,80.67
2018-11-11T17:20:39.941Z,80.64
2018-11-11T17:23:09.656Z,79.98
2018-11-11T17:25:38.407Z,80.50
2018-11-11T17:28:07.944Z,80.16
2018-11-11T17:30:36.583Z,80.65
2018-11-11T17:33:06.380Z,80.72
2018-11-11T17:35:35.052Z,80.62
2018-11-11T17:38:03.795Z,80.54
2018-11-11T17:40:32.538Z,80.27
2018-11-11T17:43:01.782Z,81.18
2018-11-11T17:45:30.512Z,81.10
2018-11-11T17:47:59.235Z,81.40
2018-11-11T17:50:29.910Z,80.85
2018-11-11T17:52:59.288Z,80.84
2018-11-11T17:55:29.462Z,81.16
2018-11-11T17:57:58.113Z,81.70
2018-11-11T18:00:27.908Z,81.56
2018-11-11T18:02:57.234Z,81.44
2018-11-11T18:05:27.979Z,81.40
2018-11-11T18:07:57.334Z,81.32
2018-11-11T18:10:26.504Z,81.08
2018-11-11T18:12:55.265Z,80.96
2018-11-11T18:15:25.349Z,81.04
2018-11-11T18:17:54.112Z,81.52
2018-11-11T18:20:24.149Z,81.60
2018-11-11T18:25:52.404Z,81.35
2018-11-11T18:28:21.214Z,82.00
2018-11-11T18:30:50.545Z,81.31
2018-11-11T18:33:19.252Z,81.41
2018-11-11T18:35:48.072Z,81.43
2018-11-11T18:38:17.036Z,81.44
2018-11-11T18:40:46.417Z,81.97
2018-11-11T18:43:15.136Z,81.54
2018-11-11T18:45:43.932Z,81.43
2018-11-11T18:48:12.599Z,82.04
2018-11-11T18:50:41.304Z,81.22
2018-11-11T18:53:10.028Z,82.23
2018-11-11T18:55:38.748Z,81.70
2018-11-11T18:58:07.444Z,82.22
2018-11-11T19:00:36.157Z,81.59
2018-11-11T19:03:05.182Z,81.33
2018-11-11T19:05:33.885Z,81.07
2018-11-11T19:08:02.716Z,80.26
2018-11-11T19:10:32.879Z,81.47
2018-11-11T19:13:02.937Z,81.12
2018-11-11T19:15:32.276Z,80.06
2018-11-11T19:18:01.552Z,79.73
2018-11-11T19:20:30.710Z,80.39
2018-11-11T19:22:59.420Z,81.07
2018-11-11T19:25:29.176Z,80.72
2018-11-11T19:27:58.757Z,80.77
2018-11-11T19:30:28.268Z,81.07
2018-11-11T19:32:56.936Z,80.59
2018-11-11T19:35:26.228Z,80.65
2018-11-11T19:37:55.784Z,80.87
2018-11-11T19:40:36.681Z,80.55
2018-11-11T19:43:05.417Z,80.65
2018-11-11T19:45:34.148Z,81.08
2018-11-11T19:48:02.943Z,80.70
2018-11-11T19:50:32.451Z,80.01
2018-11-11T19:53:01.380Z,80.10
2018-11-11T19:55:30.098Z,80.96
2018-11-11T19:57:58.828Z,80.73
2018-11-11T20:00:28.984Z,80.52
2018-11-11T20:02:59.197Z,80.82
2018-11-11T20:05:27.921Z,80.92
2018-11-11T20:07:57.617Z,80.84
2018-11-11T20:10:27.424Z,81.22
2018-11-11T20:12:56.284Z,81.07
2018-11-11T20:15:27.132Z,80.86
2018-11-11T20:17:55.888Z,81.17
2018-11-11T20:20:27.204Z,80.65
2018-11-11T20:22:56.629Z,80.77
2018-11-11T20:25:25.344Z,80.64
2018-11-11T20:27:54.595Z,81.01
2018-11-11T20:30:24.565Z,81.37
2018-11-11T20:32:53.366Z,81.39
2018-11-11T20:35:23.487Z,81.36
2018-11-11T20:38:06.545Z,80.73
2018-11-11T20:40:35.734Z,81.24
2018-11-11T20:43:05.292Z,81.28
2018-11-11T20:45:34.598Z,81.11
2018-11-11T20:48:03.868Z,81.76
2018-11-11T20:50:33.534Z,81.28
2018-11-11T20:53:03.385Z,81.24
2018-11-11T20:55:32.141Z,81.79
2018-11-11T20:58:01.035Z,81.78
2018-11-11T21:00:34.986Z,81.90
2018-11-11T21:03:11.922Z,81.70
2018-11-11T21:05:41.767Z,81.68
2018-11-11T21:08:10.529Z,81.70
2018-11-11T21:10:41.155Z,81.53
2018-11-11T21:13:10.231Z,81.42
2018-11-11T21:15:38.936Z,81.41
2018-11-11T21:18:08.220Z,81.32
2018-11-11T21:20:36.962Z,81.19
2018-11-11T21:23:07.068Z,81.16
2018-11-11T21:25:35.892Z,81.96
2018-11-11T21:28:04.780Z,82.14
2018-11-11T21:30:33.780Z,82.08
2018-11-11T21:33:02.504Z,82.61
2018-11-11T21:35:31.288Z,82.46
2018-11-11T21:38:00.187Z,82.15
2018-11-11T21:40:28.870Z,82.17
2018-11-11T21:42:58.066Z,82.22
2018-11-11T21:45:28.018Z,82.88
2018-11-11T21:47:56.787Z,82.11
2018-11-11T21:50:26.349Z,82.30
2018-11-11T21:53:02.211Z,82.95
2018-11-11T21:55:30.879Z,82.28
2018-11-11T21:57:59.600Z,82.43
2018-11-11T22:00:28.327Z,82.61
2018-11-11T22:02:57.103Z,82.79
2018-11-11T22:05:25.802Z,82.29
2018-11-11T22:07:54.936Z,82.92
2018-11-11T22:10:23.665Z,82.88
2018-11-11T22:12:53.255Z,82.83
2018-11-11T22:15:22.247Z,83.30
2018-11-11T22:17:50.981Z,83.29
2018-11-11T22:20:20.309Z,83.35
2018-11-11T22:22:55.267Z,82.65
2018-11-11T22:25:24.013Z,82.63
2018-11-11T22:27:52.761Z,82.82
2018-11-11T22:30:21.464Z,82.35
2018-11-11T22:32:50.220Z,82.54
2018-11-11T22:35:18.951Z,82.12
2018-11-11T22:37:47.665Z,81.82
2018-11-11T22:40:16.428Z,82.38
2018-11-11T22:42:45.145Z,81.94
2018-11-11T22:45:14.804Z,82.74
2018-11-11T22:47:43.532Z,81.73
2018-11-11T22:50:14.399Z,82.54
2018-11-11T22:52:43.206Z,82.31
2018-11-11T22:55:12.849Z,81.73
2018-11-11T22:57:42.456Z,82.08
2018-11-11T23:00:18.221Z,82.51
2018-11-11T23:02:46.975Z,81.73
2018-11-11T23:05:16.684Z,82.61
2018-11-11T23:07:45.556Z,82.37
2018-11-11T23:10:14.858Z,82.57
2018-11-11T23:12:43.604Z,82.72
2018-11-11T23:15:13.544Z,83.54
2018-11-11T23:17:42.318Z,83.19
2018-11-11T23:20:12.704Z,83.75
2018-11-11T23:22:41.996Z,83.09
2018-11-11T23:25:12.220Z,83.80
2018-11-11T23:27:41.140Z,83.48
2018-11-11T23:30:12.177Z,84.06
2018-11-11T23:32:40.937Z,83.55
2018-11-11T23:35:10.171Z,84.00
2018-11-11T23:37:39.128Z,83.26
2018-11-11T23:40:09.912Z,83.44
2018-11-11T23:42:38.852Z,83.65
2018-11-11T23:45:08.071Z,83.79
2018-11-11T23:47:37.063Z,83.52
2018-11-11T23:50:09.912Z,83.39
2018-11-11T23:52:38.907Z,83.41
2018-11-11T23:55:08.940Z,83.84
2018-11-11T23:57:37.687Z,83.20
